Terminal Aerodrome Forecast
Issued by NWS

Home | Current Version | Previous Version | Text Only | Print | Product List | Glossary On
Versions: 1 2 3 4 5 6 7 8 9 10 11 12 13 14 15 16 17 18 19 20 21
357
FTUS44 KOHX 042356 AAA
TAFCKV
TAF AMD
KCKV 042356Z 0500/0524 27004KT P6SM SCT006 OVC014
     FM050200 30005KT 2SM BR OVC005
     FM050900 36003KT 1/2SM FG OVC001
     FM051400 05006KT 4SM BR OVC007
     FM051600 07006KT P6SM OVC010
     FM052000 08006KT P6SM VCSH OVC050=

USA.gov is the U.S. government's official web portal to all federal, state and local government web resources and services.